createdAt,value
2019-01-21T00:00:52.317Z,100869.14
2019-01-21T00:03:24.145Z,100862.25
2019-01-21T00:05:55.465Z,100870.02
2019-01-21T00:08:26.767Z,100869.08
2019-01-21T00:10:58.031Z,100866.84
2019-01-21T00:13:29.358Z,100866.77
2019-01-21T00:16:00.729Z,100860.29
2019-01-21T00:18:32.020Z,100855.73
2019-01-21T00:21:03.287Z,100861.27
2019-01-21T00:23:34.581Z,100851.20
2019-01-21T00:26:05.865Z,100852.84
2019-01-21T00:28:37.136Z,100858.31
2019-01-21T00:31:08.388Z,100858.26
2019-01-21T00:33:39.678Z,100857.41
2019-01-21T00:36:11.037Z,100851.41
2019-01-21T00:38:42.368Z,100850.99
2019-01-21T00:41:13.653Z,100858.33
2019-01-21T00:43:44.994Z,100859.20
2019-01-21T00:46:16.268Z,100868.22
2019-01-21T00:48:47.577Z,100874.20
2019-01-21T00:51:18.928Z,100866.04
2019-01-21T00:53:50.264Z,100870.82
2019-01-21T00:56:21.580Z,100873.38
2019-01-21T00:58:52.887Z,100872.48
2019-01-21T01:01:24.215Z,100871.09
2019-01-21T01:03:55.530Z,100871.42
2019-01-21T01:06:26.813Z,100875.29
2019-01-21T01:08:58.117Z,100877.02
2019-01-21T01:11:29.473Z,100877.06
2019-01-21T01:14:00.794Z,100878.64
2019-01-21T01:16:32.072Z,100883.36
2019-01-21T01:19:03.448Z,100884.57
2019-01-21T01:21:34.773Z,100884.18
2019-01-21T01:24:06.203Z,100884.49
2019-01-21T01:26:37.485Z,100880.22
2019-01-21T01:29:08.797Z,100884.06
2019-01-21T01:31:40.142Z,100881.77
2019-01-21T01:34:11.455Z,100878.89
2019-01-21T01:36:42.746Z,100870.58
2019-01-21T01:39:14.060Z,100873.17
2019-01-21T01:41:45.355Z,100878.93
2019-01-21T01:44:16.653Z,100882.75
2019-01-21T01:46:48.354Z,100883.08
2019-01-21T01:49:19.647Z,100887.10
2019-01-21T01:51:50.942Z,100893.73
2019-01-21T01:54:25.630Z,100892.64
2019-01-21T01:56:57.092Z,100897.38
2019-01-21T01:59:28.407Z,100899.05
2019-01-21T02:01:59.715Z,100897.63
2019-01-21T02:04:31.011Z,100908.31
2019-01-21T02:07:02.317Z,100903.59
2019-01-21T02:09:33.640Z,100908.31
2019-01-21T02:12:05.108Z,100904.39
2019-01-21T02:14:36.413Z,100903.08
2019-01-21T02:17:07.697Z,100902.17
2019-01-21T02:19:41.528Z,100900.86
2019-01-21T02:22:15.410Z,100903.73
2019-01-21T02:24:50.079Z,100907.56
2019-01-21T02:28:27.619Z,100907.86
2019-01-21T02:31:56.220Z,100903.59
2019-01-21T02:35:39.630Z,100908.23
2019-01-21T02:38:56.266Z,100906.08
2019-01-21T02:41:59.629Z,100904.87
2019-01-21T02:45:18.349Z,100912.98
2019-01-21T02:48:18.514Z,100908.22
2019-01-21T02:52:00.997Z,100913.38
2019-01-21T02:55:11.613Z,100910.79
2019-01-21T02:58:41.880Z,100912.39
2019-01-21T03:02:06.618Z,100911.72
2019-01-21T03:05:20.767Z,100905.55
2019-01-21T03:08:32.358Z,100910.29
2019-01-21T03:12:12.797Z,100911.48
2019-01-21T03:15:52.639Z,100903.69
2019-01-21T03:19:17.193Z,100903.66
2019-01-21T03:22:55.759Z,100903.60
2019-01-21T03:26:23.390Z,100900.97
2019-01-21T03:30:06.658Z,100899.75
2019-01-21T03:33:21.491Z,100902.84
2019-01-21T03:36:45.416Z,100900.30
2019-01-21T03:39:58.199Z,100900.18
2019-01-21T03:42:52.914Z,100893.64
2019-01-21T03:45:53.219Z,100889.92
2019-01-21T03:49:03.845Z,100886.42
2019-01-21T03:52:24.862Z,100895.45
2019-01-21T03:55:03.496Z,100894.63
2019-01-21T03:58:42.882Z,100892.44
2019-01-21T04:02:11.351Z,100893.20
2019-01-21T04:05:20.457Z,100896.62
2019-01-21T04:08:36.083Z,100894.52
2019-01-21T04:11:43.976Z,100889.34
2019-01-21T04:15:13.470Z,100890.45
2019-01-21T04:18:41.279Z,100896.33
2019-01-21T04:22:00.797Z,100895.45
2019-01-21T04:24:58.824Z,100895.06
2019-01-21T04:28:16.860Z,100898.42
2019-01-21T04:31:22.228Z,100891.50
2019-01-21T04:34:45.429Z,100888.99
2019-01-21T04:38:14.404Z,100890.19
2019-01-21T04:41:10.450Z,100894.54
2019-01-21T04:44:37.401Z,100889.69
2019-01-21T04:47:52.302Z,100892.73
2019-01-21T04:51:05.612Z,100892.34
2019-01-21T04:54:27.132Z,100898.66
2019-01-21T04:58:09.166Z,100897.94
2019-01-21T05:01:18.411Z,100898.67
2019-01-21T05:04:36.176Z,100891.77
2019-01-21T05:07:51.074Z,100892.77
2019-01-21T05:11:14.107Z,100901.27
2019-01-21T05:14:51.935Z,100890.23
2019-01-21T05:18:12.070Z,100890.67
2019-01-21T05:21:48.367Z,100888.05
2019-01-21T05:25:08.740Z,100889.01
2019-01-21T05:28:19.788Z,100881.62
2019-01-21T05:31:33.382Z,100875.66
2019-01-21T05:35:11.149Z,100872.84
2019-01-21T05:38:07.878Z,100879.80
2019-01-21T05:41:15.239Z,100876.42
2019-01-21T05:44:58.038Z,100886.82
2019-01-21T05:48:49.013Z,100884.75
2019-01-21T05:52:24.684Z,100874.37
2019-01-21T05:55:40.730Z,100879.77
2019-01-21T05:59:21.336Z,100871.44
2019-01-21T06:02:37.161Z,100882.22
2019-01-21T06:05:52.423Z,100882.53
2019-01-21T06:09:15.292Z,100887.33
2019-01-21T06:12:46.479Z,100880.05
2019-01-21T06:15:57.958Z,100889.17
2019-01-21T06:19:11.241Z,100892.65
2019-01-21T06:22:45.382Z,100899.11
2019-01-21T06:26:12.720Z,100903.71
2019-01-21T06:30:13.756Z,100902.95
2019-01-21T06:33:48.775Z,100899.55
2019-01-21T06:37:17.605Z,100900.33
2019-01-21T06:40:32.321Z,100901.58
2019-01-21T06:43:32.546Z,100908.19
2019-01-21T06:46:52.652Z,100902.04
2019-01-21T06:50:09.393Z,100899.53
2019-01-21T06:53:28.766Z,100903.45
2019-01-21T06:56:53.167Z,100905.23
2019-01-21T07:00:21.685Z,100904.95
2019-01-21T07:03:39.623Z,100914.77
2019-01-21T07:07:01.272Z,100914.62
2019-01-21T07:10:15.531Z,100917.72
2019-01-21T07:13:32.847Z,100915.39
2019-01-21T07:16:38.171Z,100923.07
2019-01-21T07:20:33.302Z,100930.06
2019-01-21T07:23:53.220Z,100931.47
2019-01-21T07:27:12.471Z,100930.53
2019-01-21T07:30:30.968Z,100933.79
2019-01-21T07:33:41.475Z,100941.34
2019-01-21T07:36:34.761Z,100939.02
2019-01-21T07:39:40.757Z,100948.19
2019-01-21T07:42:52.225Z,100948.94
2019-01-21T07:45:46.848Z,100945.70
2019-01-21T07:49:24.969Z,100944.56
2019-01-21T07:52:41.052Z,100935.89
2019-01-21T07:56:02.575Z,100941.13
2019-01-21T07:59:46.938Z,100948.47
2019-01-21T08:03:34.316Z,100952.78
2019-01-21T08:06:59.186Z,100956.48
2019-01-21T08:10:11.355Z,100960.71
2019-01-21T08:13:42.678Z,100959.39
2019-01-21T08:16:58.695Z,100950.47
2019-01-21T08:20:25.245Z,100961.08
2019-01-21T08:23:47.403Z,100964.88
2019-01-21T08:27:17.003Z,100968.85
2019-01-21T08:30:41.483Z,100966.54
2019-01-21T08:34:13.799Z,100973.67
2019-01-21T08:37:58.595Z,100981.77
2019-01-21T08:41:31.277Z,100983.26
2019-01-21T08:44:53.405Z,100984.92
2019-01-21T08:48:24.933Z,100986.38
2019-01-21T08:51:52.909Z,100986.34
2019-01-21T08:55:10.951Z,100981.25
2019-01-21T08:58:45.720Z,100979.45
2019-01-21T09:01:56.842Z,100966.37
2019-01-21T09:05:03.624Z,100970.19
2019-01-21T09:08:11.354Z,100977.48
2019-01-21T09:12:06.622Z,100978.58
2019-01-21T09:16:10.583Z,100979.00
2019-01-21T09:19:46.883Z,100974.62
2019-01-21T09:22:53.269Z,100970.88
2019-01-21T09:26:23.645Z,100971.69
2019-01-21T09:29:27.022Z,100971.51
2019-01-21T09:32:48.657Z,100973.38
2019-01-21T09:35:54.441Z,100973.69
2019-01-21T09:39:18.679Z,100963.95
2019-01-21T09:42:56.424Z,100963.13
2019-01-21T09:46:08.447Z,100969.73
2019-01-21T09:48:37.257Z,100974.27
2019-01-21T09:51:08.668Z,100966.47
2019-01-21T09:53:40.780Z,100966.50
2019-01-21T09:56:12.189Z,100967.19
2019-01-21T09:58:45.458Z,100965.81
2019-01-21T10:01:17.310Z,100967.48
2019-01-21T10:03:48.752Z,100964.27
2019-01-21T10:06:27.521Z,100961.30
2019-01-21T10:10:00.478Z,100956.41
2019-01-21T10:13:50.102Z,100964.41
2019-01-21T10:17:07.802Z,100957.34
2019-01-21T10:20:27.056Z,100957.66
2019-01-21T10:24:34.531Z,100954.54
2019-01-21T10:27:58.530Z,100954.30
2019-01-21T10:31:13.560Z,100954.80
2019-01-21T10:34:46.704Z,100948.48
2019-01-21T10:38:14.782Z,100949.84
2019-01-21T10:41:26.194Z,100940.03
2019-01-21T10:44:28.327Z,100939.58
2019-01-21T10:47:22.526Z,100939.55
2019-01-21T10:50:47.449Z,100935.02
2019-01-21T10:54:05.005Z,100930.52
2019-01-21T10:57:27.388Z,100929.66
2019-01-21T11:01:00.715Z,100928.21
2019-01-21T11:04:43.009Z,100923.02
2019-01-21T11:08:19.117Z,100913.72
2019-01-21T11:12:08.091Z,100908.25
2019-01-21T11:15:33.603Z,100911.67
2019-01-21T11:18:44.876Z,100896.61
2019-01-21T11:22:08.384Z,100897.73
2019-01-21T11:25:39.309Z,100890.84
2019-01-21T11:28:54.720Z,100897.53
2019-01-21T11:31:48.560Z,100898.08
2019-01-21T11:35:18.529Z,100893.06
2019-01-21T11:38:51.487Z,100904.92
2019-01-21T11:42:22.958Z,100900.03
2019-01-21T11:46:04.530Z,100897.38
2019-01-21T11:48:52.032Z,100895.98
2019-01-21T11:52:03.088Z,100893.18
2019-01-21T11:55:19.369Z,100885.16
2019-01-21T11:58:32.581Z,100875.00
2019-01-21T12:02:03.141Z,100874.94
2019-01-21T12:05:25.698Z,100862.61
2019-01-21T12:09:18.357Z,100855.70
2019-01-21T12:12:32.513Z,100851.76
2019-01-21T12:16:20.125Z,100853.70
2019-01-21T12:19:29.673Z,100845.63
2019-01-21T12:23:21.945Z,100847.21
2019-01-21T12:26:33.404Z,100851.20
2019-01-21T12:29:40.708Z,100848.41
2019-01-21T12:33:03.088Z,100847.73
2019-01-21T12:36:27.023Z,100844.75
2019-01-21T12:40:08.760Z,100840.05
2019-01-21T12:43:36.735Z,100838.75
2019-01-21T12:47:13.701Z,100832.52
2019-01-21T12:50:52.180Z,100829.93
2019-01-21T12:54:06.504Z,100819.63
2019-01-21T12:57:39.275Z,100808.31
2019-01-21T13:00:57.823Z,100811.39
2019-01-21T13:03:59.811Z,100806.13
2019-01-21T13:07:21.780Z,100813.78
2019-01-21T13:10:54.468Z,100802.95
2019-01-21T13:14:15.749Z,100803.95
2019-01-21T13:17:26.912Z,100802.45
2019-01-21T13:20:45.783Z,100806.18
2019-01-21T13:23:39.943Z,100800.97
2019-01-21T13:26:54.259Z,100797.61
2019-01-21T13:30:43.443Z,100796.87
2019-01-21T13:33:53.822Z,100798.03
2019-01-21T13:37:09.994Z,100785.13
2019-01-21T13:40:53.140Z,100776.67
2019-01-21T13:44:38.667Z,100773.39
2019-01-21T13:48:09.139Z,100772.82
2019-01-21T13:51:26.911Z,100760.76
2019-01-21T13:54:39.731Z,100759.66
2019-01-21T13:58:08.990Z,100759.50
2019-01-21T14:01:21.794Z,100753.64
2019-01-21T14:04:40.806Z,100760.25
2019-01-21T14:07:57.459Z,100754.62
2019-01-21T14:11:02.306Z,100746.89
2019-01-21T14:14:11.973Z,100744.58
2019-01-21T14:17:34.514Z,100743.31
2019-01-21T14:20:46.134Z,100742.44
2019-01-21T14:23:42.583Z,100728.59
2019-01-21T14:27:12.670Z,100725.25
2019-01-21T14:31:01.445Z,100727.19
2019-01-21T14:34:05.591Z,100710.69
2019-01-21T14:37:37.390Z,100714.20
2019-01-21T14:40:38.843Z,100707.91
2019-01-21T14:43:53.036Z,100697.10
2019-01-21T14:47:36.283Z,100689.34
2019-01-21T14:51:00.260Z,100683.52
2019-01-21T14:54:41.285Z,100685.52
2019-01-21T14:57:56.275Z,100684.50
2019-01-21T15:01:26.904Z,100686.20
2019-01-21T15:05:06.563Z,100682.31
2019-01-21T15:07:58.004Z,100678.81
2019-01-21T15:11:11.631Z,100686.95
2019-01-21T15:14:24.739Z,100686.95
2019-01-21T15:17:49.071Z,100699.83
2019-01-21T15:20:57.737Z,100690.16
2019-01-21T15:23:47.030Z,100684.92
2019-01-21T15:27:13.809Z,100689.55
2019-01-21T15:30:15.309Z,100692.97
2019-01-21T15:33:35.717Z,100690.30
2019-01-21T15:37:00.911Z,100691.11
2019-01-21T15:40:35.089Z,100694.78
2019-01-21T15:43:38.971Z,100698.01
2019-01-21T15:46:54.604Z,100697.81
2019-01-21T15:49:50.104Z,100703.01
2019-01-21T15:53:11.247Z,100701.30
2019-01-21T15:56:06.841Z,100698.55
2019-01-21T15:58:57.897Z,100707.55
2019-01-21T16:02:27.995Z,100703.38
2019-01-21T16:06:06.916Z,100697.07
2019-01-21T16:09:10.486Z,100702.53
2019-01-21T16:12:36.437Z,100697.23
2019-01-21T16:15:48.937Z,100688.70
2019-01-21T16:18:34.935Z,100684.06
2019-01-21T16:22:12.050Z,100684.56
2019-01-21T16:25:55.079Z,100686.83
2019-01-21T16:29:10.388Z,100685.98
2019-01-21T16:32:01.992Z,100675.62
2019-01-21T16:35:14.410Z,100668.88
2019-01-21T16:38:09.378Z,100661.53
2019-01-21T16:41:27.411Z,100659.44
2019-01-21T16:43:58.682Z,100651.66
2019-01-21T16:46:30.018Z,100646.47
2019-01-21T16:49:01.320Z,100649.06
2019-01-21T16:51:32.566Z,100651.67
2019-01-21T16:54:03.892Z,100656.89
2019-01-21T16:56:35.162Z,100655.57
2019-01-21T16:59:06.615Z,100661.20
2019-01-21T17:01:37.895Z,100663.80
2019-01-21T17:04:09.193Z,100666.83
2019-01-21T17:06:40.567Z,100667.69
2019-01-21T17:09:12.851Z,100675.49
2019-01-21T17:11:44.159Z,100670.72
2019-01-21T17:14:15.451Z,100664.23
2019-01-21T17:16:46.758Z,100656.44
2019-01-21T17:19:18.078Z,100658.63
2019-01-21T17:21:49.316Z,100653.86
2019-01-21T17:24:20.581Z,100653.86
2019-01-21T17:26:51.822Z,100655.58
2019-01-21T17:29:23.161Z,100646.52
2019-01-21T17:31:55.046Z,100640.45
2019-01-21T17:34:26.349Z,100635.25
2019-01-21T17:36:57.603Z,100639.17
2019-01-21T17:39:28.859Z,100640.42
2019-01-21T17:42:00.187Z,100632.61
2019-01-21T17:44:31.475Z,100631.34
2019-01-21T17:47:02.760Z,100621.41
2019-01-21T17:49:34.042Z,100628.73
2019-01-21T17:52:05.555Z,100628.31
2019-01-21T17:54:36.847Z,100622.68
2019-01-21T17:57:08.169Z,100620.51
2019-01-21T17:59:39.450Z,100622.64
2019-01-21T18:02:10.747Z,100614.86
2019-01-21T18:04:42.046Z,100611.43
2019-01-21T18:07:13.351Z,100611.00
2019-01-21T18:09:44.636Z,100609.23
2019-01-21T18:12:15.961Z,100608.78
2019-01-21T18:14:47.275Z,100609.23
2019-01-21T18:17:18.584Z,100608.78
2019-01-21T18:19:49.862Z,100606.17
2019-01-21T18:22:21.198Z,100607.90
2019-01-21T18:24:52.538Z,100610.03
2019-01-21T18:27:23.867Z,100617.44
2019-01-21T18:29:55.145Z,100615.21
2019-01-21T18:32:26.481Z,100618.64
2019-01-21T18:34:57.816Z,100616.97
2019-01-21T18:37:29.150Z,100617.38
2019-01-21T18:40:00.465Z,100616.09
2019-01-21T18:42:31.755Z,100611.80
2019-01-21T18:45:03.067Z,100600.97
2019-01-21T18:47:34.383Z,100608.30
2019-01-21T18:50:06.796Z,100605.72
2019-01-21T18:52:38.115Z,100600.94
2019-01-21T18:55:09.778Z,100595.31
2019-01-21T18:57:41.089Z,100600.02
2019-01-21T19:00:17.283Z,100607.41
2019-01-21T19:02:48.599Z,100597.06
2019-01-21T19:05:20.174Z,100592.69
2019-01-21T19:07:51.481Z,100593.09
2019-01-21T19:10:22.774Z,100592.25
2019-01-21T19:12:54.227Z,100587.05
2019-01-21T19:15:31.930Z,100591.34
2019-01-21T19:18:03.541Z,100590.48
2019-01-21T19:20:34.849Z,100583.61
2019-01-21T19:23:06.137Z,100588.34
2019-01-21T19:25:37.467Z,100578.84
2019-01-21T19:28:08.759Z,100581.45
2019-01-21T19:30:40.087Z,100562.94
2019-01-21T19:33:11.463Z,100570.65
2019-01-21T19:35:42.800Z,100566.42
2019-01-21T19:38:14.097Z,100562.94
2019-01-21T19:40:45.431Z,100564.65
2019-01-21T19:43:16.815Z,100567.62
2019-01-21T19:45:48.164Z,100569.41
2019-01-21T19:48:19.482Z,100565.50
2019-01-21T19:50:50.903Z,100571.03
2019-01-21T19:53:22.247Z,100569.70
2019-01-21T19:55:53.505Z,100561.05
2019-01-21T19:58:24.903Z,100562.77
2019-01-21T20:00:56.352Z,100558.87
2019-01-21T20:03:27.669Z,100556.31
2019-01-21T20:05:58.965Z,100547.23
2019-01-21T20:08:30.275Z,100545.91
2019-01-21T20:11:01.613Z,100541.59
2019-01-21T20:13:32.898Z,100542.88
2019-01-21T20:16:04.218Z,100541.61
2019-01-21T20:18:35.555Z,100540.74
2019-01-21T20:21:06.911Z,100537.28
2019-01-21T20:23:38.232Z,100534.30
2019-01-21T20:26:09.524Z,100536.04
2019-01-21T20:28:40.947Z,100535.20
2019-01-21T20:31:12.236Z,100539.02
2019-01-21T20:33:43.577Z,100542.09
2019-01-21T20:36:14.921Z,100533.83
2019-01-21T20:38:46.271Z,100527.79
2019-01-21T20:41:17.598Z,100531.19
2019-01-21T20:43:48.960Z,100532.03
2019-01-21T20:46:20.231Z,100531.16
2019-01-21T20:48:51.546Z,100523.47
2019-01-21T20:51:22.862Z,100524.75
2019-01-21T20:53:54.201Z,100521.32
2019-01-21T20:56:25.483Z,100516.17
2019-01-21T20:58:56.739Z,100517.02
2019-01-21T21:01:28.108Z,100515.74
2019-01-21T21:03:59.464Z,100518.31
2019-01-21T21:06:30.801Z,100511.87
2019-01-21T21:09:02.162Z,100506.20
2019-01-21T21:11:33.490Z,100507.07
2019-01-21T21:14:04.927Z,100507.50
2019-01-21T21:16:36.246Z,100504.89
2019-01-21T21:19:07.614Z,100502.25
2019-01-21T21:21:38.946Z,100502.22
2019-01-21T21:24:10.262Z,100503.94
2019-01-21T21:26:41.581Z,100498.82
2019-01-21T21:29:13.711Z,100501.77
2019-01-21T21:31:45.053Z,100499.22
2019-01-21T21:34:16.561Z,100499.24
2019-01-21T21:36:47.907Z,100495.34
2019-01-21T21:39:19.241Z,100486.72
2019-01-21T21:41:50.532Z,100492.31
2019-01-21T21:44:21.862Z,100486.63
2019-01-21T21:46:53.171Z,100485.34
2019-01-21T21:49:24.753Z,100486.18
2019-01-21T21:51:56.161Z,100478.04
2019-01-21T21:54:27.507Z,100479.33
2019-01-21T21:56:59.099Z,100481.05
2019-01-21T21:59:30.450Z,100471.60
2019-01-21T22:02:01.775Z,100469.09
2019-01-21T22:04:33.189Z,100467.33
2019-01-21T22:07:04.490Z,100461.31
2019-01-21T22:09:35.789Z,100461.77
2019-01-21T22:12:07.087Z,100468.22
2019-01-21T22:14:38.392Z,100457.41
2019-01-21T22:17:09.705Z,100456.17
2019-01-21T22:19:41.298Z,100448.86
2019-01-21T22:22:12.617Z,100451.38
2019-01-21T22:24:43.912Z,100441.90
2019-01-21T22:27:15.198Z,100445.75
2019-01-21T22:29:46.500Z,100444.45
2019-01-21T22:32:17.813Z,100435.79
2019-01-21T22:34:49.116Z,100443.99
2019-01-21T22:37:20.401Z,100442.25
2019-01-21T22:39:51.641Z,100443.09
2019-01-21T22:42:23.246Z,100437.91
2019-01-21T22:44:54.520Z,100433.58
2019-01-21T22:47:25.842Z,100428.36
2019-01-21T22:49:57.168Z,100429.64
2019-01-21T22:52:28.745Z,100421.02
2019-01-21T22:55:00.242Z,100420.16
2019-01-21T22:57:31.562Z,100419.31
2019-01-21T23:00:02.894Z,100413.28
2019-01-21T23:02:34.291Z,100411.95
2019-01-21T23:05:06.167Z,100406.73
2019-01-21T23:07:37.513Z,100405.47
2019-01-21T23:10:09.025Z,100399.83
2019-01-21T23:12:40.355Z,100392.05
2019-01-21T23:15:12.063Z,100390.27
2019-01-21T23:17:43.356Z,100385.98
2019-01-21T23:20:14.665Z,100383.40
2019-01-21T23:22:49.269Z,100383.82
2019-01-21T23:25:19.047Z,100383.30
2019-01-21T23:27:50.389Z,100376.88
2019-01-21T23:30:22.089Z,100373.02
2019-01-21T23:32:53.458Z,100372.63
2019-01-21T23:35:24.767Z,100368.69
2019-01-21T23:37:56.351Z,100366.98
2019-01-21T23:40:30.770Z,100364.01
2019-01-21T23:43:02.105Z,100354.94
2019-01-21T23:45:33.434Z,100351.48
2019-01-21T23:48:04.832Z,100347.16
2019-01-21T23:50:36.139Z,100339.81
2019-01-21T23:53:07.457Z,100334.23
2019-01-21T23:55:38.737Z,100332.48
2019-01-21T23:58:10.079Z,100321.33
